Time;durP1;ratioP1;P1;durP2;ratioP2;P2;SDS_P1;SDS_P2;PMS_P1;PMS_P2;Temp;Humidity;BMP_temperature;BMP_pressure;BME280_temperature;BME280_humidity;BME280_pressure;Samples;Min_cycle;Max_cycle;Signal;HPM_P1;HPM_P2
2022/12/31 00:00:53;;;;;;;;;;;;;;;18.52;64.86;99654.31;2077706;28;22084;-75
2022/12/31 00:01:54;;;;;;;;;;;;;;;18.52;64.74;99651.63;2072886;28;19998;-74
2022/12/31 00:02:55;;;;;;;;;;;;;;;18.52;64.57;99650.78;2069595;28;19960;-75
2022/12/31 00:03:57;;;;;;;;;;;;;;;18.50;64.87;99650.97;2080404;28;19974;-75
2022/12/31 00:04:58;;;;;;;;;;;;;;;18.52;64.85;99651.63;2078381;28;19925;-75
2022/12/31 00:05:59;;;;;;;;;;;;;;;18.51;64.95;99652.66;2074132;28;19924;-74
2022/12/31 00:07:00;;;;;;;;;;;;;;;18.49;64.88;99653.84;2075755;28;20046;-76
2022/12/31 00:08:01;;;;;;;;;;;;;;;18.49;64.95;99649.28;2078052;28;19931;-76
2022/12/31 00:09:03;;;;;;;;;;;;;;;18.50;64.79;99650.16;2077574;28;19924;-74
2022/12/31 00:10:05;;;;;;;;;;;;;;;18.49;64.92;99649.28;2075102;28;19963;-75
2022/12/31 00:11:06;;;;;;;;;;;;;;;18.50;64.74;99647.47;2076941;28;20018;-76
2022/12/31 00:12:08;;;;;;;;;;;;;;;18.49;64.85;99651.16;2072432;28;19984;-75
2022/12/31 00:13:09;;;;;;;;;;;;;;;18.48;64.80;99653.00;2075318;28;20381;-75
2022/12/31 00:14:11;;;;;;;;;;;;;;;18.48;64.98;99644.13;2075727;28;19924;-75
2022/12/31 00:15:12;;;;;;;;;;;;;;;18.45;65.06;99660.59;2076406;28;20305;-75
2022/12/31 00:16:14;;;;;;;;;;;;;;;18.44;64.92;99661.59;2078167;28;20015;-75
2022/12/31 00:17:15;;;;;;;;;;;;;;;18.47;64.89;99650.47;2076788;28;19985;-75
2022/12/31 00:18:16;;;;;;;;;;;;;;;18.44;64.66;99651.69;2075156;28;19971;-76
2022/12/31 00:19:17;;;;;;;;;;;;;;;18.44;64.90;99651.69;2075550;28;19932;-77
2022/12/31 00:20:19;;;;;;;;;;;;;;;18.43;65.01;99660.75;2071249;28;19925;-76
2022/12/31 00:21:20;;;;;;;;;;;;;;;18.45;65.01;99665.97;2072335;28;19924;-75
2022/12/31 00:22:21;;;;;;;;;;;;;;;18.43;64.88;99654.56;2076037;28;19935;-75
2022/12/31 00:23:22;;;;;;;;;;;;;;;18.43;64.83;99660.75;2079083;28;20440;-75
2022/12/31 00:24:23;;;;;;;;;;;;;;;18.43;64.88;99662.59;2079550;28;19929;-76
2022/12/31 00:25:24;;;;;;;;;;;;;;;18.42;64.75;99660.94;2074491;28;20015;-76
2022/12/31 00:26:26;;;;;;;;;;;;;;;18.41;65.10;99670.00;2073031;28;19936;-75
2022/12/31 00:27:30;;;;;;;;;;;;;;;18.42;64.95;99669.00;2071562;28;21069;-75
2022/12/31 00:28:32;;;;;;;;;;;;;;;18.42;64.95;99667.16;2075384;28;20439;-75
2022/12/31 00:29:32;;;;;;;;;;;;;;;18.40;65.16;99666.47;2075505;28;20772;-76
2022/12/31 00:30:34;;;;;;;;;;;;;;;18.41;64.88;99678.06;2073158;28;19931;-75
2022/12/31 00:31:36;;;;;;;;;;;;;;;18.40;65.18;99665.66;2077621;28;19921;-75
2022/12/31 00:32:37;;;;;;;;;;;;;;;18.40;65.16;99665.66;2078113;28;19931;-76
2022/12/31 00:33:38;;;;;;;;;;;;;;;18.39;65.04;99664.81;2075553;28;21510;-75
2022/12/31 00:34:39;;;;;;;;;;;;;;;18.39;65.03;99662.13;2056692;28;20065;-69
2022/12/31 00:35:40;;;;;;;;;;;;;;;18.38;65.14;99662.31;2066138;28;20014;-76
2022/12/31 00:36:42;;;;;;;;;;;;;;;18.39;65.17;99658.63;2069407;28;20015;-75
2022/12/31 00:37:42;;;;;;;;;;;;;;;18.39;65.01;99659.44;2069897;28;20571;-75
2022/12/31 00:38:45;;;;;;;;;;;;;;;18.35;65.22;99663.50;2067952;28;19933;-75
2022/12/31 00:39:45;;;;;;;;;;;;;;;18.37;64.97;99666.84;2073092;28;19997;-75
2022/12/31 00:40:47;;;;;;;;;;;;;;;18.37;65.12;99666.84;2070559;28;20408;-75
2022/12/31 00:41:47;;;;;;;;;;;;;;;18.35;65.14;99662.66;2071697;28;19929;-74
2022/12/31 00:42:50;;;;;;;;;;;;;;;18.35;64.95;99666.19;2059502;28;19924;-76
2022/12/31 00:43:51;;;;;;;;;;;;;;;18.36;64.93;99670.56;2066836;28;20393;-75
2022/12/31 00:44:52;;;;;;;;;;;;;;;18.37;65.04;99682.13;2075219;28;19983;-75
2022/12/31 00:45:53;;;;;;;;;;;;;;;18.36;65.05;99681.28;2071396;28;24161;-74
2022/12/31 00:46:54;;;;;;;;;;;;;;;18.35;64.93;99682.28;2069258;28;19924;-75
2022/12/31 00:47:55;;;;;;;;;;;;;;;18.38;65.09;99689.16;2078416;28;19963;-75
2022/12/31 00:48:56;;;;;;;;;;;;;;;18.37;64.98;99685.66;2073257;28;20361;-76
2022/12/31 00:49:57;;;;;;;;;;;;;;;18.36;65.02;99693.88;2077491;28;19921;-76
2022/12/31 00:50:59;;;;;;;;;;;;;;;18.35;64.88;99694.88;2069902;28;19930;-74
2022/12/31 00:52:00;;;;;;;;;;;;;;;18.35;65.11;99694.88;2077540;28;19924;-75
2022/12/31 00:53:01;;;;;;;;;;;;;;;18.35;64.98;99697.56;2076646;28;19932;-74
2022/12/31 00:54:02;;;;;;;;;;;;;;;18.31;65.00;99692.56;2072757;28;19925;-75
2022/12/31 00:55:04;;;;;;;;;;;;;;;18.33;65.12;99695.09;2075727;28;20648;-75
2022/12/31 00:56:05;;;;;;;;;;;;;;;18.33;65.13;99691.53;2080025;28;19928;-75
2022/12/31 00:57:07;;;;;;;;;;;;;;;18.31;65.25;99691.72;2074795;28;19929;-75
2022/12/31 00:58:09;;;;;;;;;;;;;;;18.30;64.92;99696.25;2074623;28;22011;-75
2022/12/31 00:59:10;;;;;;;;;;;;;;;18.31;65.16;99700.63;2076427;28;19928;-76
2022/12/31 01:00:11;;;;;;;;;;;;;;;18.33;65.22;99697.75;2073735;28;19928;-75
2022/12/31 01:01:16;;;;;;;;;;;;;;;18.30;65.24;99700.78;2076564;28;21284;-75
2022/12/31 01:02:16;;;;;;;;;;;;;;;18.29;65.17;99701.81;2066152;28;19929;-75
2022/12/31 01:03:18;;;;;;;;;;;;;;;18.28;65.11;99702.81;2074472;28;19924;-75
2022/12/31 01:04:19;;;;;;;;;;;;;;;18.30;65.24;99703.47;2073206;28;19929;-75
2022/12/31 01:05:20;;;;;;;;;;;;;;;18.30;65.02;99703.47;2071237;28;19962;-76
2022/12/31 01:06:21;;;;;;;;;;;;;;;18.27;65.14;99701.13;2075261;28;20286;-75
2022/12/31 01:07:22;;;;;;;;;;;;;;;18.28;65.08;99708.19;2073854;28;19971;-75
2022/12/31 01:08:23;;;;;;;;;;;;;;;18.28;64.98;99710.88;2074322;28;19928;-75
2022/12/31 01:09:24;;;;;;;;;;;;;;;18.28;65.12;99705.50;2076394;28;20030;-75
2022/12/31 01:11:45;;;;;;;;;;;;;;;18.26;65.29;99718.25;2077205;28;21038;-75
2022/12/31 01:12:45;;;;;;;;;;;;;;;18.29;65.20;99720.59;2074703;28;20457;-75
2022/12/31 01:13:49;;;;;;;;;;;;;;;18.26;65.31;99724.47;2072776;28;20059;-74
2022/12/31 01:14:50;;;;;;;;;;;;;;;18.26;65.01;99721.78;2073155;28;19966;-75
2022/12/31 01:15:51;;;;;;;;;;;;;;;18.26;64.87;99723.63;2078123;28;20470;-74
2022/12/31 01:16:52;;;;;;;;;;;;;;;18.26;65.03;99726.31;2074939;28;19924;-75
2022/12/31 01:17:54;;;;;;;;;;;;;;;18.28;65.39;99727.00;2079668;28;19924;-75
2022/12/31 01:18:56;;;;;;;;;;;;;;;18.26;65.03;99718.25;2073593;28;19925;-75
2022/12/31 01:19:58;;;;;;;;;;;;;;;18.25;65.16;99721.97;2071211;28;20681;-76
2022/12/31 01:21:00;;;;;;;;;;;;;;;18.24;65.24;99725.66;2076252;28;19951;-75
2022/12/31 01:22:01;;;;;;;;;;;;;;;18.23;65.27;99724.81;2073249;28;21958;-75
2022/12/31 01:23:02;;;;;;;;;;;;;;;18.24;65.42;99729.16;2076722;28;19936;-74
2022/12/31 01:24:04;;;;;;;;;;;;;;;18.24;65.25;99725.66;2073180;28;20293;-74
2022/12/31 01:25:05;;;;;;;;;;;;;;;18.24;65.07;99733.72;2077586;28;19928;-74
2022/12/31 01:26:07;;;;;;;;;;;;;;;18.23;65.21;99732.03;2073683;28;19936;-74
2022/12/31 01:27:09;;;;;;;;;;;;;;;18.24;65.17;99731.84;2079792;28;20445;-75
2022/12/31 01:28:09;;;;;;;;;;;;;;;18.24;65.06;99726.47;2073898;28;19929;-75
2022/12/31 01:29:13;;;;;;;;;;;;;;;18.21;65.24;99726.84;2073661;28;20464;-75
2022/12/31 01:30:13;;;;;;;;;;;;;;;18.23;65.19;99729.34;2073302;28;19925;-75
2022/12/31 01:31:15;;;;;;;;;;;;;;;18.21;65.34;99721.47;2069954;28;19960;-74
2022/12/31 01:32:16;;;;;;;;;;;;;;;18.21;65.33;99724.16;2076731;28;19924;-75
2022/12/31 01:33:17;;;;;;;;;;;;;;;18.22;65.25;99728.53;2071259;28;20563;-74
2022/12/31 01:34:19;;;;;;;;;;;;;;;18.22;65.25;99733.03;2070085;28;19920;-74
2022/12/31 01:35:19;;;;;;;;;;;;;;;18.21;65.07;99736.75;2076929;28;19929;-75
2022/12/31 01:36:22;;;;;;;;;;;;;;;18.20;65.00;99737.75;2074742;28;21334;-75
2022/12/31 01:37:23;;;;;;;;;;;;;;;18.20;65.17;99735.09;2070564;28;19972;-75
2022/12/31 01:38:24;;;;;;;;;;;;;;;18.21;65.02;99737.56;2073368;28;19921;-74
2022/12/31 01:39:25;;;;;;;;;;;;;;;18.20;65.21;99745.81;2069750;28;19928;-75
2022/12/31 01:40:26;;;;;;;;;;;;;;;18.18;65.29;99750.53;2072933;28;19951;-75
2022/12/31 01:41:27;;;;;;;;;;;;;;;18.22;65.36;99750.00;2077447;28;19959;-75
2022/12/31 01:42:29;;;;;;;;;;;;;;;18.20;65.21;99743.97;2076059;28;19948;-74
2022/12/31 01:43:44;;;;;;;;;;;;;;;18.21;65.19;99747.50;2073812;28;19921;-75
2022/12/31 01:44:53;;;;;;;;;;;;;;;18.18;65.32;99748.66;2073079;28;20547;-75
2022/12/31 01:45:54;;;;;;;;;;;;;;;18.18;65.24;99758.56;2072423;28;19928;-74
2022/12/31 01:46:57;;;;;;;;;;;;;;;18.18;65.33;99747.84;2074726;28;20605;-75
2022/12/31 01:47:58;;;;;;;;;;;;;;;18.19;65.32;99744.13;2073033;28;19925;-74
2022/12/31 01:49:01;;;;;;;;;;;;;;;18.18;65.02;99740.63;2074745;28;19924;-75
2022/12/31 01:50:05;;;;;;;;;;;;;;;18.19;65.02;99744.13;2076678;28;19964;-75
2022/12/31 01:51:08;;;;;;;;;;;;;;;18.17;65.22;99747.00;2071320;28;19929;-74
2022/12/31 01:52:10;;;;;;;;;;;;;;;18.16;65.20;99739.09;2078437;28;19932;-75
2022/12/31 01:53:12;;;;;;;;;;;;;;;18.16;65.34;99745.31;2072216;28;19929;-75
2022/12/31 01:54:15;;;;;;;;;;;;;;;18.17;65.29;99747.00;2071736;28;20390;-75
2022/12/31 01:55:18;;;;;;;;;;;;;;;18.18;65.23;99750.53;2071847;28;19925;-75
2022/12/31 01:56:20;;;;;;;;;;;;;;;18.16;65.03;99747.16;2073874;28;19936;-75
2022/12/31 01:57:24;;;;;;;;;;;;;;;18.17;65.42;99751.53;2079700;28;19925;-75
2022/12/31 01:58:27;;;;;;;;;;;;;;;18.17;65.08;99755.06;2073132;28;19936;-75
2022/12/31 01:59:29;;;;;;;;;;;;;;;18.16;65.23;99747.16;2075251;28;19934;-75
2022/12/31 02:00:31;;;;;;;;;;;;;;;18.14;65.35;99749.22;2070915;28;20896;-75
2022/12/31 02:01:32;;;;;;;;;;;;;;;18.14;65.29;99750.03;2074909;28;19944;-74
2022/12/31 02:02:33;;;;;;;;;;;;;;;18.15;65.21;99750.88;2076022;28;19925;-75
2022/12/31 02:03:35;;;;;;;;;;;;;;;18.13;65.27;99748.34;2078441;28;19921;-74
2022/12/31 02:04:35;;;;;;;;;;;;;;;18.13;65.28;99755.56;2071334;28;19929;-75
2022/12/31 02:05:39;;;;;;;;;;;;;;;18.12;65.37;99760.09;2071750;28;19928;-75
2022/12/31 02:06:43;;;;;;;;;;;;;;;18.12;65.32;99753.91;2075189;28;20306;-75
2022/12/31 02:07:44;;;;;;;;;;;;;;;18.12;65.33;99753.91;2074799;28;20483;-75
2022/12/31 02:08:45;;;;;;;;;;;;;;;18.11;65.32;99755.75;2070641;28;19925;-74
2022/12/31 02:09:46;;;;;;;;;;;;;;;18.12;65.42;99754.75;2072662;28;19931;-75
2022/12/31 02:10:47;;;;;;;;;;;;;;;18.13;65.33;99755.56;2070149;28;19935;-73
2022/12/31 02:11:48;;;;;;;;;;;;;;;18.12;65.20;99749.38;2079188;28;19994;-75
2022/12/31 02:12:51;;;;;;;;;;;;;;;18.11;65.36;99754.91;2073058;28;20019;-75
2022/12/31 02:13:53;;;;;;;;;;;;;;;18.14;65.26;99757.25;2077516;28;19925;-75
2022/12/31 02:14:55;;;;;;;;;;;;;;;18.12;65.18;99759.28;2072934;28;19966;-74
2022/12/31 02:16:02;;;;;;;;;;;;;;;18.09;65.11;99753.22;2075327;28;19932;-75
2022/12/31 02:17:06;;;;;;;;;;;;;;;18.08;65.33;99758.78;2072069;28;19921;-75
2022/12/31 02:18:12;;;;;;;;;;;;;;;18.08;65.21;99759.63;2080312;28;20357;-75
2022/12/31 02:19:24;;;;;;;;;;;;;;;18.09;65.14;99763.97;2077903;28;19983;-75
2022/12/31 02:20:39;;;;;;;;;;;;;;;18.09;65.36;99760.47;2075118;28;19927;-75
2022/12/31 02:21:44;;;;;;;;;;;;;;;18.09;65.47;99760.47;2071468;28;20461;-75
2022/12/31 02:23:03;;;;;;;;;;;;;;;18.09;65.36;99755.09;2076559;28;20771;-75
2022/12/31 02:24:18;;;;;;;;;;;;;;;18.08;65.26;99759.63;2071378;28;19924;-74
2022/12/31 02:25:28;;;;;;;;;;;;;;;18.07;65.29;99765.16;2073129;28;19924;-74
2022/12/31 02:26:36;;;;;;;;;;;;;;;18.07;65.22;99771.34;2077188;28;22369;-75
2022/12/31 02:27:42;;;;;;;;;;;;;;;18.06;65.27;99763.50;2074209;28;19920;-75
2022/12/31 02:28:53;;;;;;;;;;;;;;;18.06;65.52;99768.84;2073042;28;20536;-75
2022/12/31 02:30:12;;;;;;;;;;;;;;;18.06;65.18;99774.22;2073597;28;20540;-74
2022/12/31 02:31:16;;;;;;;;;;;;;;;18.05;65.40;99775.22;2074030;28;19925;-75
2022/12/31 02:32:21;;;;;;;;;;;;;;;18.07;65.30;99776.72;2076854;28;20068;-74
2022/12/31 02:33:25;;;;;;;;;;;;;;;18.08;65.35;99775.72;2077696;28;20727;-74
2022/12/31 02:34:30;;;;;;;;;;;;;;;18.06;65.37;99780.44;2071387;28;19959;-75
2022/12/31 02:35:32;;;;;;;;;;;;;;;18.04;65.21;99774.38;2070982;28;20469;-75
2022/12/31 02:36:36;;;;;;;;;;;;;;;18.05;65.43;99784.13;2075074;28;19937;-75
2022/12/31 02:37:38;;;;;;;;;;;;;;;18.06;65.33;99787.66;2071357;28;19928;-76
2022/12/31 02:38:43;;;;;;;;;;;;;;;18.03;65.27;99783.47;2076270;28;20479;-74
2022/12/31 02:39:43;;;;;;;;;;;;;;;18.03;65.12;99778.09;2069679;28;19924;-75
2022/12/31 02:40:45;;;;;;;;;;;;;;;18.03;65.50;99786.16;2077403;28;19928;-74
2022/12/31 02:41:50;;;;;;;;;;;;;;;18.04;65.44;99779.75;2076618;28;19929;-74
2022/12/31 02:42:51;;;;;;;;;;;;;;;18.05;65.30;99773.41;2076689;28;22331;-74
2022/12/31 02:43:52;;;;;;;;;;;;;;;18.05;65.21;99770.72;2072313;28;19929;-74
2022/12/31 02:44:53;;;;;;;;;;;;;;;18.05;65.26;99769.84;2076830;28;21683;-76
2022/12/31 02:46:02;;;;;;;;;;;;;;;18.03;65.42;99774.56;2073453;28;20289;-74
2022/12/31 02:47:09;;;;;;;;;;;;;;;18.04;65.31;99769.03;2073986;28;23211;-75
2022/12/31 02:48:18;;;;;;;;;;;;;;;18.04;65.41;99768.19;2074519;28;21209;-74
2022/12/31 02:49:23;;;;;;;;;;;;;;;18.03;65.30;99767.34;2078289;28;20011;-75
2022/12/31 02:50:32;;;;;;;;;;;;;;;18.04;65.11;99763.66;2075566;28;20585;-75
2022/12/31 02:51:39;;;;;;;;;;;;;;;18.03;65.27;99764.66;2069931;28;20347;-76
2022/12/31 02:52:45;;;;;;;;;;;;;;;18.03;65.01;99759.31;2068143;28;20532;-74
2022/12/31 02:53:57;;;;;;;;;;;;;;;18.01;65.43;99757.78;2073331;28;20003;-74
2022/12/31 02:55:02;;;;;;;;;;;;;;;18.00;65.23;99750.75;2079857;28;19925;-74
2022/12/31 02:56:06;;;;;;;;;;;;;;;17.99;65.45;99754.44;2068812;28;19964;-75
2022/12/31 02:57:09;;;;;;;;;;;;;;;18.00;65.44;99754.28;2070606;28;20094;-75
2022/12/31 02:58:13;;;;;;;;;;;;;;;18.00;65.36;99756.97;2071463;28;20017;-74
2022/12/31 03:02:12;;;;;;;;;;;;;;;17.99;65.45;99751.75;2071234;28;20029;-75
2022/12/31 03:03:14;;;;;;;;;;;;;;;17.99;65.26;99754.44;2073986;28;20007;-75
2022/12/31 03:04:34;;;;;;;;;;;;;;;18.00;65.42;99756.13;2076291;28;20382;-74
2022/12/31 03:05:38;;;;;;;;;;;;;;;17.99;65.32;99757.13;2075765;28;19924;-75
2022/12/31 03:06:39;;;;;;;;;;;;;;;17.97;65.46;99751.06;2079305;28;19966;-74
2022/12/31 03:07:41;;;;;;;;;;;;;;;17.97;65.50;99756.44;2075857;28;20012;-75
2022/12/31 03:09:59;;;;;;;;;;;;;;;17.96;65.44;99752.94;2071631;28;19924;-76
2022/12/31 03:12:44;;;;;;;;;;;;;;;17.94;65.57;99746.91;2076799;28;20214;-74
2022/12/31 03:13:43;;;;;;;;;;;;;;;17.96;65.12;99744.88;2073963;28;19921;-75
2022/12/31 03:14:43;;;;;;;;;;;;;;;17.94;65.32;99744.25;2070301;28;19932;-75
2022/12/31 03:15:45;;;;;;;;;;;;;;;17.95;65.54;99745.06;2073220;28;20293;-75
2022/12/31 03:16:47;;;;;;;;;;;;;;;17.94;65.30;99748.75;2073252;28;20313;-76
2022/12/31 03:17:52;;;;;;;;;;;;;;;17.95;65.43;99745.06;2077430;28;20024;-74
2022/12/31 03:22:47;;;;;;;;;;;;;;;17.92;65.37;99732.81;2073145;28;19924;-74
2022/12/31 03:26:28;;;;;;;;;;;;;;;17.91;65.53;99739.19;2075685;28;20293;-75
2022/12/31 03:27:28;;;;;;;;;;;;;;;17.94;65.24;99748.75;2074595;28;20691;-75
2022/12/31 03:28:30;;;;;;;;;;;;;;;17.93;65.41;99744.41;2075138;28;19955;-74
2022/12/31 03:29:31;;;;;;;;;;;;;;;17.91;65.53;99746.41;2071520;28;19928;-74
2022/12/31 03:30:33;;;;;;;;;;;;;;;17.91;65.42;99749.91;2067883;28;19935;-75
2022/12/31 03:31:33;;;;;;;;;;;;;;;17.90;65.21;99748.25;2068778;28;19929;-74
2022/12/31 03:32:35;;;;;;;;;;;;;;;17.91;65.29;99746.41;2074653;28;19982;-75
2022/12/31 03:33:40;;;;;;;;;;;;;;;17.91;65.38;99741.88;2075778;28;19978;-75
2022/12/31 03:34:40;;;;;;;;;;;;;;;17.91;65.32;99749.91;2063404;28;19936;-75
2022/12/31 03:35:43;;;;;;;;;;;;;;;17.90;65.50;99748.25;2077252;28;19940;-74
2022/12/31 03:36:43;;;;;;;;;;;;;;;17.90;65.41;99750.94;2076465;28;19921;-75
2022/12/31 03:37:45;;;;;;;;;;;;;;;17.90;65.43;99750.94;2080887;28;19925;-75
2022/12/31 03:38:45;;;;;;;;;;;;;;;17.89;65.47;99751.97;2080327;28;20344;-76
2022/12/31 03:39:47;;;;;;;;;;;;;;;17.90;65.44;99750.94;2071088;28;19924;-74
2022/12/31 03:40:48;;;;;;;;;;;;;;;17.89;65.41;99754.66;2077191;28;19947;-75
2022/12/31 03:41:50;;;;;;;;;;;;;;;17.89;65.25;99748.44;2080230;28;20698;-75
2022/12/31 03:42:50;;;;;;;;;;;;;;;17.90;65.45;99753.63;2076247;28;19986;-74
2022/12/31 03:43:52;;;;;;;;;;;;;;;17.88;65.29;99752.13;2079786;28;19929;-76
2022/12/31 03:44:52;;;;;;;;;;;;;;;17.87;65.54;99751.28;2070037;28;19932;-74
2022/12/31 03:45:54;;;;;;;;;;;;;;;17.89;65.26;99753.81;2074513;28;20011;-75
2022/12/31 03:46:55;;;;;;;;;;;;;;;17.88;65.53;99754.81;2067997;28;19947;-75
2022/12/31 03:47:57;;;;;;;;;;;;;;;17.87;65.43;99751.28;2077419;28;19921;-75
2022/12/31 03:48:58;;;;;;;;;;;;;;;17.86;65.44;99749.63;2076806;28;19925;-74
2022/12/31 03:50:00;;;;;;;;;;;;;;;17.86;65.59;99755.81;2078746;28;19928;-75
2022/12/31 03:51:01;;;;;;;;;;;;;;;17.87;65.49;99756.66;2078545;28;19959;-74
2022/12/31 03:52:02;;;;;;;;;;;;;;;17.88;65.50;99754.81;2078884;28;19920;-74
2022/12/31 03:53:03;;;;;;;;;;;;;;;17.87;65.41;99751.28;2076924;28;20552;-75
2022/12/31 03:54:04;;;;;;;;;;;;;;;17.85;65.54;99748.75;2072307;28;19931;-74
2022/12/31 03:55:06;;;;;;;;;;;;;;;17.84;65.35;99757.00;2076323;28;20150;-76
2022/12/31 03:56:06;;;;;;;;;;;;;;;17.85;65.43;99753.31;2078385;28;19963;-75
2022/12/31 03:57:08;;;;;;;;;;;;;;;17.83;65.45;99758.03;2071697;28;19927;-75
2022/12/31 03:58:09;;;;;;;;;;;;;;;17.83;65.45;99761.53;2074271;28;21369;-75
2022/12/31 03:59:10;;;;;;;;;;;;;;;17.83;65.56;99756.16;2076745;28;20546;-75
2022/12/31 04:00:13;;;;;;;;;;;;;;;17.83;65.24;99753.50;2073793;28;19974;-75
2022/12/31 04:01:14;;;;;;;;;;;;;;;17.84;65.57;99763.19;2074273;28;19928;-75
2022/12/31 04:02:15;;;;;;;;;;;;;;;17.84;65.42;99765.88;2076981;28;19934;-74
2022/12/31 04:03:17;;;;;;;;;;;;;;;17.84;65.62;99767.75;2065394;28;19924;-75
2022/12/31 04:04:19;;;;;;;;;;;;;;;17.84;65.36;99762.38;2071453;28;20067;-75
2022/12/31 04:05:21;;;;;;;;;;;;;;;17.85;65.29;99759.50;2069215;28;20621;-75
2022/12/31 04:06:21;;;;;;;;;;;;;;;17.84;65.35;99755.16;2076748;28;19952;-74
2022/12/31 04:07:23;;;;;;;;;;;;;;;17.84;65.51;99757.00;2078259;28;20504;-76
2022/12/31 04:08:23;;;;;;;;;;;;;;;17.83;65.55;99756.16;2074659;28;20713;-75
2022/12/31 04:09:25;;;;;;;;;;;;;;;17.83;65.58;99755.34;2075290;28;19934;-76
2022/12/31 04:10:26;;;;;;;;;;;;;;;17.82;65.58;99753.66;2076084;28;19925;-75
2022/12/31 04:11:27;;;;;;;;;;;;;;;17.85;65.51;99758.66;2075642;28;19927;-75
2022/12/31 04:12:29;;;;;;;;;;;;;;;17.83;65.50;99752.66;2064841;28;19931;-74
2022/12/31 04:13:29;;;;;;;;;;;;;;;17.84;65.39;99757.00;2073459;28;20734;-76
2022/12/31 04:14:31;;;;;;;;;;;;;;;17.83;65.45;99755.34;2075225;28;19998;-75
2022/12/31 04:15:31;;;;;;;;;;;;;;;17.85;65.26;99761.34;2074954;28;19925;-75
2022/12/31 04:16:33;;;;;;;;;;;;;;;17.83;65.28;99753.50;2078580;28;19986;-75
2022/12/31 04:17:34;;;;;;;;;;;;;;;17.82;65.50;99751.78;2074660;28;19958;-74
2022/12/31 04:18:35;;;;;;;;;;;;;;;17.80;65.31;99756.53;2075180;28;20001;-74
2022/12/31 04:19:38;;;;;;;;;;;;;;;17.81;65.45;99751.97;2076687;28;19928;-75
2022/12/31 04:20:38;;;;;;;;;;;;;;;17.80;65.61;99750.28;2076411;28;19932;-75
2022/12/31 04:21:40;;;;;;;;;;;;;;;17.82;65.34;99754.47;2073791;28;19920;-75
2022/12/31 04:22:41;;;;;;;;;;;;;;;17.82;65.34;99757.16;2070657;28;19928;-75
2022/12/31 04:23:43;;;;;;;;;;;;;;;17.82;65.40;99756.31;2077961;28;19971;-75
2022/12/31 04:24:43;;;;;;;;;;;;;;;17.81;65.32;99758.19;2069823;28;19974;-75
2022/12/31 04:25:45;;;;;;;;;;;;;;;17.79;65.38;99754.00;2070013;28;20014;-74
2022/12/31 04:26:45;;;;;;;;;;;;;;;17.82;65.34;99753.66;2075885;28;20551;-74
2022/12/31 04:27:47;;;;;;;;;;;;;;;17.79;65.53;99756.69;2078121;28;19958;-75
2022/12/31 04:28:47;;;;;;;;;;;;;;;17.79;65.35;99754.00;2081074;28;19970;-75
2022/12/31 04:29:49;;;;;;;;;;;;;;;17.77;65.44;99751.44;2068466;28;19928;-75
2022/12/31 04:30:49;;;;;;;;;;;;;;;17.77;65.45;99758.66;2075534;28;19951;-75
2022/12/31 04:31:51;;;;;;;;;;;;;;;17.77;65.31;99762.16;2075077;28;20213;-75
2022/12/31 04:32:51;;;;;;;;;;;;;;;17.78;65.34;99757.66;2074627;28;19929;-76
2022/12/31 04:33:53;;;;;;;;;;;;;;;17.78;65.57;99753.16;2073841;28;19929;-76
2022/12/31 04:34:54;;;;;;;;;;;;;;;17.77;65.41;99754.13;2069291;28;20660;-75
2022/12/31 04:36:00;;;;;;;;;;;;;;;17.77;65.35;99754.13;2075133;28;19956;-75
2022/12/31 04:37:02;;;;;;;;;;;;;;;17.81;65.49;99752.81;2079356;28;19925;-75
2022/12/31 04:38:02;;;;;;;;;;;;;;;17.89;65.25;99759.19;2075958;28;19928;-75
2022/12/31 04:39:04;;;;;;;;;;;;;;;17.95;64.96;99766.53;2073869;28;20308;-75
2022/12/31 04:40:05;;;;;;;;;;;;;;;18.00;64.78;99764.19;2071526;28;19931;-74
2022/12/31 04:42:25;;;;;;;;;;;;;;;18.15;64.65;99764.28;2071491;28;20383;-76
2022/12/31 04:43:25;;;;;;;;;;;;;;;18.18;64.44;99770.16;2073582;28;19921;-75
2022/12/31 04:44:27;;;;;;;;;;;;;;;18.25;64.50;99770.31;2075191;28;20344;-75
2022/12/31 04:45:27;;;;;;;;;;;;;;;18.30;64.13;99774.16;2062858;28;20851;-75
2022/12/31 04:46:30;;;;;;;;;;;;;;;18.33;64.25;99772.97;2079513;28;19921;-75
2022/12/31 04:47:31;;;;;;;;;;;;;;;18.37;63.88;99774.28;2077764;28;20324;-75
2022/12/31 04:48:32;;;;;;;;;;;;;;;18.38;64.23;99770.56;2078064;28;19929;-75
2022/12/31 04:49:33;;;;;;;;;;;;;;;18.40;64.29;99782.00;2074032;28;19924;-75
2022/12/31 04:50:35;;;;;;;;;;;;;;;18.44;64.11;99775.28;2074718;28;19978;-74
2022/12/31 04:51:37;;;;;;;;;;;;;;;18.47;64.03;99774.91;2075904;28;23581;-75
2022/12/31 04:52:37;;;;;;;;;;;;;;;18.49;64.35;99772.88;2076476;28;19925;-75
2022/12/31 04:53:39;;;;;;;;;;;;;;;18.49;64.25;99789.00;2078992;28;20439;-74
2022/12/31 04:54:41;;;;;;;;;;;;;;;18.52;64.32;99787.81;2072133;28;20952;-76
2022/12/31 04:55:41;;;;;;;;;;;;;;;18.56;63.90;99788.31;2072498;28;20059;-74
2022/12/31 04:56:43;;;;;;;;;;;;;;;18.60;64.14;99795.00;2076724;28;19928;-74
2022/12/31 04:57:43;;;;;;;;;;;;;;;18.59;64.16;99788.78;2072392;28;19947;-75
2022/12/31 04:58:45;;;;;;;;;;;;;;;18.61;64.20;99789.47;2068920;28;20472;-75
2022/12/31 04:59:45;;;;;;;;;;;;;;;18.60;63.99;99787.78;2073224;28;19924;-75
2022/12/31 05:00:48;;;;;;;;;;;;;;;18.62;64.18;99790.28;2076218;28;20365;-75
2022/12/31 05:01:49;;;;;;;;;;;;;;;18.68;63.98;99797.66;2074521;28;19925;-74
2022/12/31 05:02:50;;;;;;;;;;;;;;;18.69;64.19;99791.25;2070311;28;20420;-75
2022/12/31 05:03:51;;;;;;;;;;;;;;;18.72;63.82;99796.28;2068477;28;20397;-75
2022/12/31 05:04:52;;;;;;;;;;;;;;;18.73;63.91;99800.66;2071644;28;19928;-75
2022/12/31 05:05:58;;;;;;;;;;;;;;;18.74;64.10;99799.66;2075963;28;19936;-74
2022/12/31 05:07:00;;;;;;;;;;;;;;;18.75;64.23;99807.56;2076516;28;21083;-75
2022/12/31 05:08:00;;;;;;;;;;;;;;;18.79;63.89;99805.34;2077521;28;19924;-75
2022/12/31 05:09:02;;;;;;;;;;;;;;;18.80;64.18;99806.19;2074118;28;19959;-76
2022/12/31 05:10:03;;;;;;;;;;;;;;;18.82;63.86;99810.38;2073480;28;20578;-75
2022/12/31 05:11:04;;;;;;;;;;;;;;;18.83;64.14;99805.81;2073541;28;24110;-75
2022/12/31 05:12:05;;;;;;;;;;;;;;;18.86;64.09;99809.00;2072316;28;19946;-76
2022/12/31 05:13:07;;;;;;;;;;;;;;;18.89;63.70;99816.72;2075190;28;20370;-76
2022/12/31 05:14:08;;;;;;;;;;;;;;;18.92;63.76;99821.75;2076099;28;19929;-75
2022/12/31 05:15:09;;;;;;;;;;;;;;;18.91;63.79;99817.38;2075046;28;19929;-74
2022/12/31 05:16:10;;;;;;;;;;;;;;;18.93;64.19;99815.34;2075355;28;19928;-75
2022/12/31 05:17:11;;;;;;;;;;;;;;;18.95;63.66;99818.69;2071384;28;19983;-75
2022/12/31 05:18:12;;;;;;;;;;;;;;;19.00;63.65;99822.69;2068914;28;20014;-75
2022/12/31 05:19:13;;;;;;;;;;;;;;;19.02;63.86;99826.06;2078015;28;19929;-75
2022/12/31 05:20:15;;;;;;;;;;;;;;;19.04;63.94;99821.34;2073155;28;19935;-76
2022/12/31 05:21:20;;;;;;;;;;;;;;;19.07;63.84;99829.06;2065987;28;19971;-74
2022/12/31 05:22:30;;;;;;;;;;;;;;;19.07;63.86;99827.19;2074176;28;20843;-75
2022/12/31 05:23:32;;;;;;;;;;;;;;;19.12;63.92;99829.34;2071763;28;19932;-75
2022/12/31 05:24:32;;;;;;;;;;;;;;;19.14;63.91;99830.03;2073990;28;19921;-75
2022/12/31 05:25:34;;;;;;;;;;;;;;;19.17;63.78;99837.72;2070552;28;20958;-75
2022/12/31 05:26:34;;;;;;;;;;;;;;;19.18;63.87;99834.03;2074693;28;19935;-76
2022/12/31 05:27:36;;;;;;;;;;;;;;;19.18;63.95;99836.72;2073497;28;19928;-75
2022/12/31 05:28:37;;;;;;;;;;;;;;;19.20;63.81;99835.50;2063012;28;19929;-76
2022/12/31 05:29:38;;;;;;;;;;;;;;;19.23;63.70;99839.69;2070241;28;20014;-75
2022/12/31 05:30:39;;;;;;;;;;;;;;;19.23;63.71;99839.69;2074712;28;19947;-75
2022/12/31 05:31:40;;;;;;;;;;;;;;;19.25;63.70;99836.81;2073602;28;19925;-75
2022/12/31 05:32:41;;;;;;;;;;;;;;;19.26;63.81;99836.66;2076981;28;19924;-76
2022/12/31 05:33:42;;;;;;;;;;;;;;;19.28;63.34;99839.16;2073019;28;19928;-75
2022/12/31 05:34:43;;;;;;;;;;;;;;;19.29;63.77;99838.97;2073334;28;19931;-75
2022/12/31 05:35:44;;;;;;;;;;;;;;;19.29;63.87;99841.69;2073084;28;19935;-75
2022/12/31 05:36:46;;;;;;;;;;;;;;;19.30;63.80;99843.34;2072912;28;19920;-75
2022/12/31 05:37:48;;;;;;;;;;;;;;;19.32;63.62;99844.00;2076507;28;20615;-74
2022/12/31 05:38:48;;;;;;;;;;;;;;;19.31;63.76;99842.34;2068002;28;19928;-75
2022/12/31 05:39:50;;;;;;;;;;;;;;;19.31;63.67;99836.97;2075844;28;19972;-74